sensor_id;sensor_type;location;lat;lon;timestamp;pressure;altitude;pressure_sealevel;temperature;humidity
5284;BME280;15377;48.540;9.268;2023-12-20T00:02:07;97536.78;;;6.11;100.00
5284;BME280;15377;48.540;9.268;2023-12-20T00:04:33;97540.91;;;6.15;100.00
5284;BME280;15377;48.540;9.268;2023-12-20T00:06:58;97523.44;;;6.13;100.00
5284;BME280;15377;48.540;9.268;2023-12-20T00:09:24;97511.97;;;6.18;100.00
5284;BME280;15377;48.540;9.268;2023-12-20T00:11:51;97512.91;;;6.24;100.00
5284;BME280;15377;48.540;9.268;2023-12-20T00:14:16;97511.38;;;6.23;100.00
5284;BME280;15377;48.540;9.268;2023-12-20T00:16:42;97511.63;;;6.16;100.00
5284;BME280;15377;48.540;9.268;2023-12-20T00:19:07;97511.63;;;6.16;100.00
5284;BME280;15377;48.540;9.268;2023-12-20T00:21:32;97505.50;;;6.12;100.00
5284;BME280;15377;48.540;9.268;2023-12-20T00:23:58;97491.66;;;6.06;100.00
5284;BME280;15377;48.540;9.268;2023-12-20T00:26:23;97489.25;;;5.96;100.00
5284;BME280;15377;48.540;9.268;2023-12-20T00:28:49;97491.53;;;5.97;100.00
5284;BME280;15377;48.540;9.268;2023-12-20T00:31:14;97481.06;;;5.96;100.00
5284;BME280;15377;48.540;9.268;2023-12-20T00:33:39;97468.84;;;5.88;100.00
5284;BME280;15377;48.540;9.268;2023-12-20T00:36:08;97459.66;;;5.82;100.00
5284;BME280;15377;48.540;9.268;2023-12-20T00:38:34;97471.22;;;5.86;100.00
5284;BME280;15377;48.540;9.268;2023-12-20T00:40:59;97469.69;;;5.85;100.00
5284;BME280;15377;48.540;9.268;2023-12-20T00:43:24;97466.75;;;5.79;100.00
5284;BME280;15377;48.540;9.268;2023-12-20T00:45:49;97457.38;;;5.80;100.00
5284;BME280;15377;48.540;9.268;2023-12-20T00:48:15;97468.84;;;5.88;100.00
5284;BME280;15377;48.540;9.268;2023-12-20T00:50:40;97451.03;;;5.83;100.00
5284;BME280;15377;48.540;9.268;2023-12-20T00:53:06;97445.69;;;5.80;100.00
5284;BME280;15377;48.540;9.268;2023-12-20T00:55:31;97450.94;;;5.87;100.00
5284;BME280;15377;48.540;9.268;2023-12-20T00:57:56;97452.34;;;5.91;100.00
5284;BME280;15377;48.540;9.268;2023-12-20T01:00:22;97450.44;;;6.01;100.00
5284;BME280;15377;48.540;9.268;2023-12-20T01:02:47;97434.53;;;5.87;100.00
5284;BME280;15377;48.540;9.268;2023-12-20T01:05:15;97452.75;;;6.02;100.00
5284;BME280;15377;48.540;9.268;2023-12-20T01:07:40;97463.09;;;6.20;100.00
5284;BME280;15377;48.540;9.268;2023-12-20T01:10:05;97465.13;;;6.28;100.00
5284;BME280;15377;48.540;9.268;2023-12-20T01:12:31;97471.47;;;6.38;100.00
5284;BME280;15377;48.540;9.268;2023-12-20T01:14:56;97460.84;;;6.40;100.00
5284;BME280;15377;48.540;9.268;2023-12-20T01:17:23;97477.00;;;6.47;100.00
5284;BME280;15377;48.540;9.268;2023-12-20T01:19:48;97483.13;;;6.51;100.00
5284;BME280;15377;48.540;9.268;2023-12-20T01:22:13;97442.28;;;6.35;100.00
5284;BME280;15377;48.540;9.268;2023-12-20T01:24:39;97473.22;;;6.66;100.00
5284;BME280;15377;48.540;9.268;2023-12-20T01:27:04;97482.84;;;6.70;100.00
5284;BME280;15377;48.540;9.268;2023-12-20T01:29:31;97470.16;;;6.64;100.00
5284;BME280;15377;48.540;9.268;2023-12-20T01:31:56;97488.72;;;6.69;100.00
5284;BME280;15377;48.540;9.268;2023-12-20T01:34:22;97485.03;;;6.63;100.00
5284;BME280;15377;48.540;9.268;2023-12-20T01:36:47;97486.16;;;6.53;100.00
5284;BME280;15377;48.540;9.268;2023-12-20T01:39:12;97491.25;;;6.42;100.00
5284;BME280;15377;48.540;9.268;2023-12-20T01:41:38;97500.31;;;6.39;100.00
5284;BME280;15377;48.540;9.268;2023-12-20T01:44:04;97504.81;;;6.33;100.00
5284;BME280;15377;48.540;9.268;2023-12-20T01:46:29;97513.47;;;6.31;100.00
5284;BME280;15377;48.540;9.268;2023-12-20T01:48:55;97505.28;;;6.19;100.00
5284;BME280;15377;48.540;9.268;2023-12-20T01:51:21;97515.56;;;6.15;100.00
5284;BME280;15377;48.540;9.268;2023-12-20T01:53:47;97510.44;;;6.04;100.00
5284;BME280;15377;48.540;9.268;2023-12-20T01:56:13;97505.06;;;6.01;100.00
5284;BME280;15377;48.540;9.268;2023-12-20T01:58:43;97498.00;;;5.91;100.00
5284;BME280;15377;48.540;9.268;2023-12-20T02:01:10;97502.72;;;5.90;100.00
5284;BME280;15377;48.540;9.268;2023-12-20T02:03:35;97493.53;;;5.84;100.00
5284;BME280;15377;48.540;9.268;2023-12-20T02:06:02;97488.69;;;5.76;100.00
5284;BME280;15377;48.540;9.268;2023-12-20T02:08:28;97493.81;;;5.74;100.00
5284;BME280;15377;48.540;9.268;2023-12-20T02:10:54;97484.97;;;5.70;100.00
5284;BME280;15377;48.540;9.268;2023-12-20T02:13:19;97480.38;;;5.67;100.00
5284;BME280;15377;48.540;9.268;2023-12-20T02:15:45;97475.03;;;5.63;100.00
5284;BME280;15377;48.540;9.268;2023-12-20T02:18:10;97475.81;;;5.64;100.00
5284;BME280;15377;48.540;9.268;2023-12-20T02:20:39;97470.25;;;5.67;100.00
5284;BME280;15377;48.540;9.268;2023-12-20T02:23:04;97465.53;;;5.68;100.00
5284;BME280;15377;48.540;9.268;2023-12-20T02:25:32;97464.00;;;5.67;100.00
5284;BME280;15377;48.540;9.268;2023-12-20T02:27:58;97472.09;;;5.70;100.00
5284;BME280;15377;48.540;9.268;2023-12-20T02:30:23;97465.97;;;5.66;100.00
5284;BME280;15377;48.540;9.268;2023-12-20T02:32:49;97464.69;;;5.71;100.00
5284;BME280;15377;48.540;9.268;2023-12-20T02:35:15;97467.72;;;5.73;100.00
5284;BME280;15377;48.540;9.268;2023-12-20T02:37:40;97458.34;;;5.74;100.00
5284;BME280;15377;48.540;9.268;2023-12-20T02:40:06;97463.13;;;5.70;100.00
5284;BME280;15377;48.540;9.268;2023-12-20T02:42:32;97463.13;;;5.70;100.00
5284;BME280;15377;48.540;9.268;2023-12-20T02:44:57;97471.00;;;5.68;100.00
5284;BME280;15377;48.540;9.268;2023-12-20T02:47:22;97450.03;;;5.65;100.00
5284;BME280;15377;48.540;9.268;2023-12-20T02:49:48;97450.69;;;5.69;100.00
5284;BME280;15377;48.540;9.268;2023-12-20T02:52:14;97453.75;;;5.71;100.00
5284;BME280;15377;48.540;9.268;2023-12-20T02:54:39;97452.97;;;5.70;100.00
5284;BME280;15377;48.540;9.268;2023-12-20T02:57:05;97414.69;;;5.36;100.00
5284;BME280;15377;48.540;9.268;2023-12-20T02:59:31;97457.78;;;5.66;100.00
5284;BME280;15377;48.540;9.268;2023-12-20T03:01:56;97461.28;;;5.67;100.00
5284;BME280;15377;48.540;9.268;2023-12-20T03:04:21;97465.44;;;5.71;100.00
5284;BME280;15377;48.540;9.268;2023-12-20T03:06:47;97463.13;;;5.70;100.00
5284;BME280;15377;48.540;9.268;2023-12-20T03:09:12;97454.94;;;5.70;100.00
5284;BME280;15377;48.540;9.268;2023-12-20T03:11:38;97465.31;;;5.75;100.00
5284;BME280;15377;48.540;9.268;2023-12-20T03:14:04;97468.38;;;5.77;100.00
5284;BME280;15377;48.540;9.268;2023-12-20T03:16:29;97468.03;;;5.75;100.00
5284;BME280;15377;48.540;9.268;2023-12-20T03:18:56;97465.84;;;5.70;100.00
5284;BME280;15377;48.540;9.268;2023-12-20T03:21:21;97466.84;;;5.76;100.00
5284;BME280;15377;48.540;9.268;2023-12-20T03:23:47;97458.75;;;5.72;100.00
5284;BME280;15377;48.540;9.268;2023-12-20T03:26:12;97469.25;;;5.74;100.00
5284;BME280;15377;48.540;9.268;2023-12-20T03:28:37;97477.13;;;5.72;100.00
5284;BME280;15377;48.540;9.268;2023-12-20T03:31:03;97471.66;;;5.72;100.00
5284;BME280;15377;48.540;9.268;2023-12-20T03:33:29;97491.34;;;5.79;100.00
5284;BME280;15377;48.540;9.268;2023-12-20T03:35:54;97474.72;;;5.74;100.00
5284;BME280;15377;48.540;9.268;2023-12-20T03:38:21;97490.22;;;5.77;100.00
5284;BME280;15377;48.540;9.268;2023-12-20T03:40:46;97487.94;;;5.75;100.00
5284;BME280;15377;48.540;9.268;2023-12-20T03:43:12;97488.69;;;5.76;100.00
5284;BME280;15377;48.540;9.268;2023-12-20T03:45:37;97494.47;;;5.78;100.00
5284;BME280;15377;48.540;9.268;2023-12-20T03:48:02;97489.47;;;5.76;100.00
5284;BME280;15377;48.540;9.268;2023-12-20T03:50:28;97494.84;;;5.80;100.00
5284;BME280;15377;48.540;9.268;2023-12-20T03:52:54;97488.69;;;5.76;100.00
5284;BME280;15377;48.540;9.268;2023-12-20T03:55:19;97497.19;;;5.78;100.00
5284;BME280;15377;48.540;9.268;2023-12-20T03:57:44;97499.41;;;5.83;100.00
5284;BME280;15377;48.540;9.268;2023-12-20T04:00:10;97506.94;;;5.79;100.00
5284;BME280;15377;48.540;9.268;2023-12-20T04:02:37;97496.44;;;5.77;100.00
5284;BME280;15377;48.540;9.268;2023-12-20T04:05:02;97497.75;;;5.73;100.00
5284;BME280;15377;48.540;9.268;2023-12-20T04:07:28;97493.81;;;5.74;100.00
5284;BME280;15377;48.540;9.268;2023-12-20T04:09:54;97509.78;;;5.75;100.00
5284;BME280;15377;48.540;9.268;2023-12-20T04:12:19;97501.69;;;5.72;100.00
5284;BME280;15377;48.540;9.268;2023-12-20T04:14:44;97495.25;;;5.66;100.00
5284;BME280;15377;48.540;9.268;2023-12-20T04:17:10;97515.13;;;5.79;100.00
5284;BME280;15377;48.540;9.268;2023-12-20T04:19:35;97509.00;;;5.75;100.00
5284;BME280;15377;48.540;9.268;2023-12-20T04:22:00;97506.81;;;5.70;100.00
5284;BME280;15377;48.540;9.268;2023-12-20T04:24:26;97509.09;;;5.71;100.00
5284;BME280;15377;48.540;9.268;2023-12-20T04:26:51;97512.94;;;5.74;100.00
5284;BME280;15377;48.540;9.268;2023-12-20T04:29:16;97522.97;;;5.77;100.00
5284;BME280;15377;48.540;9.268;2023-12-20T04:31:42;97507.06;;;5.63;100.00
5284;BME280;15377;48.540;9.268;2023-12-20T04:34:07;97528.22;;;5.71;100.00
5284;BME280;15377;48.540;9.268;2023-12-20T04:36:33;97525.59;;;5.68;100.00
5284;BME280;15377;48.540;9.268;2023-12-20T04:38:58;97518.59;;;5.67;100.00
5284;BME280;15377;48.540;9.268;2023-12-20T04:41:24;97503.53;;;5.62;100.00
5284;BME280;15377;48.540;9.268;2023-12-20T04:43:50;97522.44;;;5.69;100.00
5284;BME280;15377;48.540;9.268;2023-12-20T04:46:15;97508.47;;;5.67;100.00
5284;BME280;15377;48.540;9.268;2023-12-20T04:48:40;97511.41;;;5.73;100.00
5284;BME280;15377;48.540;9.268;2023-12-20T04:51:06;97516.19;;;5.69;100.00
5284;BME280;15377;48.540;9.268;2023-12-20T04:53:31;97517.19;;;5.62;100.00
5284;BME280;15377;48.540;9.268;2023-12-20T04:55:56;97524.72;;;5.58;100.00
5284;BME280;15377;48.540;9.268;2023-12-20T04:58:22;97535.00;;;5.67;100.00
5284;BME280;15377;48.540;9.268;2023-12-20T05:00:47;97527.22;;;5.65;100.00
5284;BME280;15377;48.540;9.268;2023-12-20T05:03:13;97526.16;;;5.63;100.00
5284;BME280;15377;48.540;9.268;2023-12-20T05:05:39;97547.53;;;5.64;100.00
5284;BME280;15377;48.540;9.268;2023-12-20T05:08:04;97550.06;;;5.59;100.00
5284;BME280;15377;48.540;9.268;2023-12-20T05:10:30;97551.56;;;5.60;100.00
5284;BME280;15377;48.540;9.268;2023-12-20T05:12:55;97549.06;;;5.65;100.00
5284;BME280;15377;48.540;9.268;2023-12-20T05:15:20;97540.97;;;5.62;100.00
5284;BME280;15377;48.540;9.268;2023-12-20T05:17:46;97542.75;;;5.56;100.00
5284;BME280;15377;48.540;9.268;2023-12-20T05:20:11;97558.56;;;5.61;100.00
5284;BME280;15377;48.540;9.268;2023-12-20T05:22:36;97552.13;;;5.55;100.00
5284;BME280;15377;48.540;9.268;2023-12-20T05:25:02;97548.19;;;5.56;100.00
5284;BME280;15377;48.540;9.268;2023-12-20T05:27:27;97562.41;;;5.63;100.00
5284;BME280;15377;48.540;9.268;2023-12-20T05:29:53;97560.75;;;5.66;100.00
5284;BME280;15377;48.540;9.268;2023-12-20T05:32:18;97567.09;;;5.63;100.00
5284;BME280;15377;48.540;9.268;2023-12-20T05:34:43;97579.56;;;5.64;100.00
5284;BME280;15377;48.540;9.268;2023-12-20T05:37:09;97577.34;;;5.59;100.00
5284;BME280;15377;48.540;9.268;2023-12-20T05:39:34;97582.47;;;5.57;100.00
5284;BME280;15377;48.540;9.268;2023-12-20T05:41:59;97587.50;;;5.58;100.00
5284;BME280;15377;48.540;9.268;2023-12-20T05:44:25;97585.22;;;5.57;100.00
5284;BME280;15377;48.540;9.268;2023-12-20T05:46:50;97596.78;;;5.61;100.00
5284;BME280;15377;48.540;9.268;2023-12-20T05:49:15;97584.34;;;5.60;100.00
5284;BME280;15377;48.540;9.268;2023-12-20T05:51:41;97585.63;;;5.55;100.00
5284;BME280;15377;48.540;9.268;2023-12-20T05:54:07;97589.56;;;5.54;100.00
5284;BME280;15377;48.540;9.268;2023-12-20T05:56:33;97584.53;;;5.53;100.00
5284;BME280;15377;48.540;9.268;2023-12-20T05:58:58;97582.91;;;5.55;100.00
5284;BME280;15377;48.540;9.268;2023-12-20T06:01:24;97593.06;;;5.55;100.00
5284;BME280;15377;48.540;9.268;2023-12-20T06:03:49;97601.59;;;5.57;100.00
5284;BME280;15377;48.540;9.268;2023-12-20T06:06:14;97602.78;;;5.56;100.00
5284;BME280;15377;48.540;9.268;2023-12-20T06:08:40;97613.25;;;5.57;100.00
5284;BME280;15377;48.540;9.268;2023-12-20T06:11:06;97615.56;;;5.59;100.00
5284;BME280;15377;48.540;9.268;2023-12-20T06:13:31;97614.03;;;5.58;100.00
5284;BME280;15377;48.540;9.268;2023-12-20T06:15:57;97604.19;;;5.48;100.00
5284;BME280;15377;48.540;9.268;2023-12-20T06:18:22;97627.69;;;5.58;100.00
5284;BME280;15377;48.540;9.268;2023-12-20T06:20:48;97621.44;;;5.57;100.00
5284;BME280;15377;48.540;9.268;2023-12-20T06:23:13;97617.66;;;5.55;100.00
5284;BME280;15377;48.540;9.268;2023-12-20T06:25:39;97621.13;;;5.55;100.00
5284;BME280;15377;48.540;9.268;2023-12-20T06:28:04;97631.16;;;5.58;100.00
5284;BME280;15377;48.540;9.268;2023-12-20T06:30:30;97632.38;;;5.57;100.00
5284;BME280;15377;48.540;9.268;2023-12-20T06:32:57;97623.53;;;5.53;100.00
5284;BME280;15377;48.540;9.268;2023-12-20T06:35:23;97631.72;;;5.53;100.00
5284;BME280;15377;48.540;9.268;2023-12-20T06:37:49;97627.78;;;5.54;100.00
5284;BME280;15377;48.540;9.268;2023-12-20T06:40:14;97628.97;;;5.53;100.00
5284;BME280;15377;48.540;9.268;2023-12-20T06:42:39;97632.81;;;5.56;100.00
5284;BME280;15377;48.540;9.268;2023-12-20T06:45:05;97638.94;;;5.60;100.00
5284;BME280;15377;48.540;9.268;2023-12-20T06:47:30;97635.88;;;5.58;100.00
5284;BME280;15377;48.540;9.268;2023-12-20T06:49:56;97635.00;;;5.61;100.00
5284;BME280;15377;48.540;9.268;2023-12-20T06:52:21;97631.28;;;5.55;100.00
5284;BME280;15377;48.540;9.268;2023-12-20T06:54:47;97645.25;;;5.57;100.00
5284;BME280;15377;48.540;9.268;2023-12-20T06:57:12;97634.53;;;5.50;100.00
5284;BME280;15377;48.540;9.268;2023-12-20T06:59:41;97634.53;;;5.50;100.00
5284;BME280;15377;48.540;9.268;2023-12-20T07:02:08;97644.94;;;5.55;100.00
5284;BME280;15377;48.540;9.268;2023-12-20T07:04:33;97646.13;;;5.54;100.00
5284;BME280;15377;48.540;9.268;2023-12-20T07:06:58;97650.28;;;5.58;100.00
5284;BME280;15377;48.540;9.268;2023-12-20T07:09:26;97649.19;;;5.56;100.00
5284;BME280;15377;48.540;9.268;2023-12-20T07:11:51;97651.38;;;5.61;100.00
5284;BME280;15377;48.540;9.268;2023-12-20T07:14:17;97646.78;;;5.58;100.00
5284;BME280;15377;48.540;9.268;2023-12-20T07:16:42;97665.56;;;5.56;100.00
5284;BME280;15377;48.540;9.268;2023-12-20T07:19:07;97667.94;;;5.54;100.00
5284;BME280;15377;48.540;9.268;2023-12-20T07:21:33;97666.31;;;5.56;100.00
5284;BME280;15377;48.540;9.268;2023-12-20T07:23:58;97667.44;;;5.59;100.00
5284;BME280;15377;48.540;9.268;2023-12-20T07:26:23;97667.44;;;5.59;100.00
5284;BME280;15377;48.540;9.268;2023-12-20T07:28:49;97675.63;;;5.59;100.00
5284;BME280;15377;48.540;9.268;2023-12-20T07:31:18;97673.91;;;5.65;100.00
5284;BME280;15377;48.540;9.268;2023-12-20T07:33:43;97677.81;;;5.64;100.00
5284;BME280;15377;48.540;9.268;2023-12-20T07:36:09;97679.44;;;5.61;100.00
5284;BME280;15377;48.540;9.268;2023-12-20T07:38:34;97694.53;;;5.66;100.00
5284;BME280;15377;48.540;9.268;2023-12-20T07:41:00;97700.75;;;5.66;100.00
5284;BME280;15377;48.540;9.268;2023-12-20T07:43:25;97705.78;;;5.68;100.00
5284;BME280;15377;48.540;9.268;2023-12-20T07:45:51;97701.34;;;5.74;100.00
5284;BME280;15377;48.540;9.268;2023-12-20T07:48:16;97692.03;;;5.71;100.00
5284;BME280;15377;48.540;9.268;2023-12-20T07:50:41;97695.09;;;5.73;100.00
5284;BME280;15377;48.540;9.268;2023-12-20T07:53:07;97704.06;;;5.74;100.00
5284;BME280;15377;48.540;9.268;2023-12-20T07:55:33;97695.78;;;5.77;100.00
5284;BME280;15377;48.540;9.268;2023-12-20T07:57:59;97713.94;;;5.84;100.00
5284;BME280;15377;48.540;9.268;2023-12-20T08:00:25;97717.00;;;5.86;100.00
5284;BME280;15377;48.540;9.268;2023-12-20T08:02:51;97718.56;;;5.87;100.00
5284;BME280;15377;48.540;9.268;2023-12-20T08:05:18;97710.69;;;5.89;100.00
5284;BME280;15377;48.540;9.268;2023-12-20T08:07:43;97721.19;;;5.90;100.00
5284;BME280;15377;48.540;9.268;2023-12-20T08:10:09;97713.84;;;5.87;100.00
5284;BME280;15377;48.540;9.268;2023-12-20T08:12:34;97729.25;;;5.94;100.00
5284;BME280;15377;48.540;9.268;2023-12-20T08:14:59;97712.03;;;5.97;100.00
5284;BME280;15377;48.540;9.268;2023-12-20T08:17:25;97714.44;;;5.95;100.00
5284;BME280;15377;48.540;9.268;2023-12-20T08:19:51;97729.16;;;5.97;100.00
5284;BME280;15377;48.540;9.268;2023-12-20T08:22:16;97714.31;;;5.98;100.00
5284;BME280;15377;48.540;9.268;2023-12-20T08:24:42;97716.94;;;6.02;100.00
5284;BME280;15377;48.540;9.268;2023-12-20T08:27:07;97708.41;;;6.00;100.00
5284;BME280;15377;48.540;9.268;2023-12-20T08:29:33;97714.97;;;6.02;100.00
5284;BME280;15377;48.540;9.268;2023-12-20T08:31:59;97706.78;;;6.02;100.00
5284;BME280;15377;48.540;9.268;2023-12-20T08:34:24;97733.91;;;6.09;100.00
5284;BME280;15377;48.540;9.268;2023-12-20T08:36:50;97720.34;;;6.06;100.00
5284;BME280;15377;48.540;9.268;2023-12-20T08:39:16;97723.75;;;6.10;100.00
5284;BME280;15377;48.540;9.268;2023-12-20T08:41:41;97726.91;;;6.08;100.00
5284;BME280;15377;48.540;9.268;2023-12-20T08:44:07;97720.47;;;6.15;100.00
5284;BME280;15377;48.540;9.268;2023-12-20T08:46:32;97734.25;;;6.24;100.00
5284;BME280;15377;48.540;9.268;2023-12-20T08:48:57;97733.94;;;6.22;100.00
5284;BME280;15377;48.540;9.268;2023-12-20T08:51:23;97733.94;;;6.22;100.00
5284;BME280;15377;48.540;9.268;2023-12-20T08:53:51;97730.66;;;6.27;100.00
5284;BME280;15377;48.540;9.268;2023-12-20T08:56:16;97737.44;;;6.35;100.00
5284;BME280;15377;48.540;9.268;2023-12-20T08:58:43;97737.75;;;6.24;100.00
5284;BME280;15377;48.540;9.268;2023-12-20T09:01:08;97746.72;;;6.37;100.00
5284;BME280;15377;48.540;9.268;2023-12-20T09:03:34;97746.63;;;6.41;100.00
5284;BME280;15377;48.540;9.268;2023-12-20T09:06:00;97750.03;;;6.45;100.00
5284;BME280;15377;48.540;9.268;2023-12-20T09:08:25;97753.97;;;6.44;100.00
5284;BME280;15377;48.540;9.268;2023-12-20T09:10:50;97745.97;;;6.37;100.00
5284;BME280;15377;48.540;9.268;2023-12-20T09:13:16;97750.47;;;6.43;100.00
5284;BME280;15377;48.540;9.268;2023-12-20T09:15:41;97747.72;;;6.43;100.00
5284;BME280;15377;48.540;9.268;2023-12-20T09:18:07;97756.47;;;6.38;100.00
5284;BME280;15377;48.540;9.268;2023-12-20T09:20:33;97759.75;;;6.33;100.00
5284;BME280;15377;48.540;9.268;2023-12-20T09:22:58;97752.53;;;6.27;100.00
5284;BME280;15377;48.540;9.268;2023-12-20T09:25:24;97750.22;;;6.25;100.00
5284;BME280;15377;48.540;9.268;2023-12-20T09:27:51;97761.69;;;6.20;100.00
5284;BME280;15377;48.540;9.268;2023-12-20T09:30:17;97760.16;;;6.19;100.00
5284;BME280;15377;48.540;9.268;2023-12-20T09:32:42;97755.72;;;5.97;100.00
5284;BME280;15377;48.540;9.268;2023-12-20T09:35:08;97777.00;;;5.89;100.00
5284;BME280;15377;48.540;9.268;2023-12-20T09:37:34;97770.97;;;5.82;100.00
5284;BME280;15377;48.540;9.268;2023-12-20T09:39:59;97774.91;;;5.81;100.00
5284;BME280;15377;48.540;9.268;2023-12-20T09:42:38;97778.53;;;5.74;100.00
5284;BME280;15377;48.540;9.268;2023-12-20T09:45:08;97771.41;;;5.64;100.00
5284;BME280;15377;48.540;9.268;2023-12-20T09:47:35;97777.47;;;5.72;100.00
5284;BME280;15377;48.540;9.268;2023-12-20T09:50:02;97784.88;;;5.71;100.00
5284;BME280;15377;48.540;9.268;2023-12-20T09:52:28;97788.97;;;5.63;100.00
5284;BME280;15377;48.540;9.268;2023-12-20T09:54:54;97788.91;;;5.51;100.00
5284;BME280;15377;48.540;9.268;2023-12-20T09:57:23;97784.84;;;5.43;100.00
5284;BME280;15377;48.540;9.268;2023-12-20T09:59:50;97782.28;;;5.36;100.00
5284;BME280;15377;48.540;9.268;2023-12-20T10:02:18;97784.75;;;5.30;100.00
5284;BME280;15377;48.540;9.268;2023-12-20T10:04:47;97795.84;;;5.23;100.00
5284;BME280;15377;48.540;9.268;2023-12-20T10:07:13;97780.06;;;5.15;100.00
5284;BME280;15377;48.540;9.268;2023-12-20T10:09:38;97788.59;;;5.17;100.00
5284;BME280;15377;48.540;9.268;2023-12-20T10:12:05;97784.00;;;5.14;100.00
5284;BME280;15377;48.540;9.268;2023-12-20T10:14:32;97781.25;;;5.14;100.00
5284;BME280;15377;48.540;9.268;2023-12-20T10:17:04;97791.34;;;5.17;100.00
5284;BME280;15377;48.540;9.268;2023-12-20T10:19:31;97778.03;;;5.19;100.00
5284;BME280;15377;48.540;9.268;2023-12-20T10:21:58;97778.53;;;5.30;100.00
5284;BME280;15377;48.540;9.268;2023-12-20T10:24:24;97773.75;;;5.34;100.00
5284;BME280;15377;48.540;9.268;2023-12-20T10:27:01;97777.78;;;5.29;100.00
5284;BME280;15377;48.540;9.268;2023-12-20T10:29:33;97763.19;;;5.20;100.00
5284;BME280;15377;48.540;9.268;2023-12-20T10:31:59;97764.91;;;5.14;100.00
5284;BME280;15377;48.540;9.268;2023-12-20T10:34:25;97759.03;;;4.99;100.00
5284;BME280;15377;48.540;9.268;2023-12-20T10:36:51;97743.31;;;5.03;100.00
5284;BME280;15377;48.540;9.268;2023-12-20T10:39:17;97761.66;;;5.03;100.00
5284;BME280;15377;48.540;9.268;2023-12-20T10:41:44;97748.38;;;5.05;100.00
5284;BME280;15377;48.540;9.268;2023-12-20T10:44:11;97749.72;;;5.13;100.00
5284;BME280;15377;48.540;9.268;2023-12-20T10:46:39;97753.06;;;5.20;100.00
5284;BME280;15377;48.540;9.268;2023-12-20T10:49:05;97749.63;;;5.32;100.00
5284;BME280;15377;48.540;9.268;2023-12-20T10:51:31;97744.06;;;5.36;100.00
5284;BME280;15377;48.540;9.268;2023-12-20T10:53:56;97752.91;;;5.56;100.00
5284;BME280;15377;48.540;9.268;2023-12-20T10:56:23;97748.94;;;5.73;100.00
5284;BME280;15377;48.540;9.268;2023-12-20T10:58:51;97752.09;;;5.87;100.00
5284;BME280;15377;48.540;9.268;2023-12-20T11:01:18;97745.34;;;6.04;100.00
5284;BME280;15377;48.540;9.268;2023-12-20T11:03:52;97740.25;;;6.06;100.00
5284;BME280;15377;48.540;9.268;2023-12-20T11:09:14;97752.19;;;6.37;100.00
5284;BME280;15377;48.540;9.268;2023-12-20T11:12:06;97749.94;;;6.61;100.00
5284;BME280;15377;48.540;9.268;2023-12-20T11:14:41;97750.81;;;6.58;100.00
5284;BME280;15377;48.540;9.268;2023-12-20T11:17:09;97750.38;;;6.72;100.00
5284;BME280;15377;48.540;9.268;2023-12-20T11:19:36;97748.19;;;6.67;100.00
5284;BME280;15377;48.540;9.268;2023-12-20T11:22:04;97744.25;;;6.68;100.00
5284;BME280;15377;48.540;9.268;2023-12-20T11:24:31;97740.31;;;6.69;100.00
5284;BME280;15377;48.540;9.268;2023-12-20T11:27:00;97743.72;;;6.85;100.00
5284;BME280;15377;48.540;9.268;2023-12-20T11:29:35;97751.81;;;6.89;100.00
5284;BME280;15377;48.540;9.268;2023-12-20T11:32:47;97746.00;;;6.62;100.00
5284;BME280;15377;48.540;9.268;2023-12-20T11:34:47;97742.72;;;6.67;100.00
5284;BME280;15377;48.540;9.268;2023-12-20T11:37:13;97753.22;;;6.68;100.00
5284;BME280;15377;48.540;9.268;2023-12-20T11:39:38;97734.16;;;6.40;100.00
5284;BME280;15377;48.540;9.268;2023-12-20T11:42:04;97744.47;;;6.48;100.00
5284;BME280;15377;48.540;9.268;2023-12-20T11:44:37;97736.38;;;6.45;100.00
5284;BME280;15377;48.540;9.268;2023-12-20T11:47:06;97742.34;;;6.40;100.00
5284;BME280;15377;48.540;9.268;2023-12-20T11:49:32;97737.25;;;6.42;100.00
5284;BME280;15377;48.540;9.268;2023-12-20T11:51:57;97752.09;;;6.41;100.00
5284;BME280;15377;48.540;9.268;2023-12-20T11:54:22;97739.63;;;6.27;100.00
5284;BME280;15377;48.540;9.268;2023-12-20T11:56:48;97754.06;;;6.28;100.00
5284;BME280;15377;48.540;9.268;2023-12-20T11:59:13;97751.19;;;6.19;100.00
5284;BME280;15377;48.540;9.268;2023-12-20T12:01:39;97750.84;;;6.17;100.00
5284;BME280;15377;48.540;9.268;2023-12-20T12:04:07;97743.94;;;6.12;100.00
5284;BME280;15377;48.540;9.268;2023-12-20T12:06:33;97738.94;;;6.11;100.00
5284;BME280;15377;48.540;9.268;2023-12-20T12:08:59;97743.63;;;6.10;100.00
5284;BME280;15377;48.540;9.268;2023-12-20T12:11:24;97751.00;;;6.26;100.00
5284;BME280;15377;48.540;9.268;2023-12-20T12:13:50;97739.28;;;6.25;100.00
5284;BME280;15377;48.540;9.268;2023-12-20T12:16:19;97732.06;;;6.19;100.00
5284;BME280;15377;48.540;9.268;2023-12-20T12:18:45;97737.88;;;6.21;100.00
5284;BME280;15377;48.540;9.268;2023-12-20T12:21:18;97742.56;;;6.20;100.00
5284;BME280;15377;48.540;9.268;2023-12-20T12:23:44;97735.44;;;6.23;100.00
5284;BME280;15377;48.540;9.268;2023-12-20T12:26:10;97744.22;;;6.18;100.00
5284;BME280;15377;48.540;9.268;2023-12-20T12:28:35;97730.09;;;6.32;100.00
5284;BME280;15377;48.540;9.268;2023-12-20T12:31:00;97731.00;;;6.29;100.00
5284;BME280;15377;48.540;9.268;2023-12-20T12:33:26;97733.03;;;6.25;100.00
5284;BME280;15377;48.540;9.268;2023-12-20T12:35:52;97745.06;;;6.27;100.00
5284;BME280;15377;48.540;9.268;2023-12-20T12:38:21;97738.41;;;6.28;100.00
5284;BME280;15377;48.540;9.268;2023-12-20T12:40:47;97732.50;;;6.30;100.00
5284;BME280;15377;48.540;9.268;2023-12-20T12:43:12;97733.94;;;6.22;100.00
5284;BME280;15377;48.540;9.268;2023-12-20T12:45:38;97730.00;;;6.23;100.00
5284;BME280;15377;48.540;9.268;2023-12-20T12:48:03;97736.13;;;6.27;100.00
5284;BME280;15377;48.540;9.268;2023-12-20T12:50:30;97750.31;;;6.22;100.00
5284;BME280;15377;48.540;9.268;2023-12-20T12:52:55;97742.44;;;6.24;100.00
5284;BME280;15377;48.540;9.268;2023-12-20T12:55:21;97754.50;;;6.39;100.00
5284;BME280;15377;48.540;9.268;2023-12-20T12:57:46;97742.25;;;6.31;100.00
5284;BME280;15377;48.540;9.268;2023-12-20T13:00:12;97746.59;;;6.28;100.00
5284;BME280;15377;48.540;9.268;2023-12-20T13:02:37;97737.94;;;6.05;100.00
5284;BME280;15377;48.540;9.268;2023-12-20T13:05:04;97733.53;;;5.95;100.00
5284;BME280;15377;48.540;9.268;2023-12-20T13:07:29;97743.59;;;5.98;100.00